Airport ID:KTSP
Update Time (UTC):04 DEC 20 01:06
Wind Speed (Knots):7
Wind Direction (Magnetic):100
Temperature (°C):6
Dew Point (°C):-20
Humidity (%):13
Altimeter (inHg):30.35
Density Altitude (Feet):
Visibility (Miles):10
Clouds (Hundreds of feet):CLR
Present Weather:NO PRECIPITATION
METAR:METAR KTSP 040105Z AUTO 10007KT 10SM CLR 06/M20 A3034 RMK AO2

The data displayed is for advisory purposes only and is not to be used for flight planning or operations.